Time;durP1;ratioP1;P1;durP2;ratioP2;P2;SDS_P1;SDS_P2;PMS_P1;PMS_P2;Temp;Humidity;BMP_temperature;BMP_pressure;BME280_temperature;BME280_humidity;BME280_pressure;Samples;Min_cycle;Max_cycle;Signal;HPM_P1;HPM_P2
2022/08/10 00:01:20;;;;;;;1.02;0.63;;;25.50;63.50;;;;;;5032129;28;20700;-77
2022/08/10 00:03:45;;;;;;;0.88;0.60;;;25.50;63.30;;;;;;5033279;28;20025;-77
2022/08/10 00:06:11;;;;;;;0.60;0.60;;;25.50;63.40;;;;;;5018797;28;20021;-77
2022/08/10 00:08:37;;;;;;;3.67;0.80;;;25.50;63.50;;;;;;5012585;28;20149;-77
2022/08/10 00:11:03;;;;;;;1.75;0.55;;;25.50;63.50;;;;;;5013387;28;20029;-77
2022/08/10 00:13:28;;;;;;;0.40;0.40;;;25.50;63.50;;;;;;5013658;28;20026;-77
2022/08/10 00:15:54;;;;;;;3.42;0.82;;;25.50;63.50;;;;;;5013424;28;20025;-77
2022/08/10 00:18:19;;;;;;;2.92;0.60;;;25.50;63.50;;;;;;5012044;28;20034;-76
2022/08/10 00:20:45;;;;;;;1.85;0.60;;;25.40;63.50;;;;;;5013358;28;20105;-77
2022/08/10 00:23:11;;;;;;;5.97;0.70;;;25.50;63.60;;;;;;5012113;28;20489;-77
2022/08/10 00:25:36;;;;;;;1.00;0.80;;;25.40;63.50;;;;;;5013284;28;20542;-77
2022/08/10 00:28:02;;;;;;;2.08;0.70;;;25.40;63.50;;;;;;5013188;28;20026;-77
2022/08/10 00:30:28;;;;;;;0.50;0.50;;;25.40;63.50;;;;;;5011807;28;20057;-77
2022/08/10 00:32:53;;;;;;;1.48;0.73;;;25.40;63.50;;;;;;5011991;28;20053;-77
2022/08/10 00:35:19;;;;;;;2.03;0.57;;;25.40;63.50;;;;;;5013304;28;20026;-77
2022/08/10 00:37:45;;;;;;;1.15;0.70;;;25.40;63.50;;;;;;5013259;28;20032;-77
2022/08/10 00:40:11;;;;;;;1.33;0.50;;;25.40;63.50;;;;;;5012470;28;20370;-77
2022/08/10 00:42:36;;;;;;;3.33;0.68;;;25.40;63.40;;;;;;5013482;28;20069;-77
2022/08/10 00:45:02;;;;;;;3.10;0.50;;;25.40;63.50;;;;;;5013233;28;20397;-77
2022/08/10 00:47:28;;;;;;;2.50;0.60;;;25.40;63.60;;;;;;4995495;28;20026;-76
2022/08/10 00:49:53;;;;;;;0.70;0.50;;;25.40;63.50;;;;;;5013120;28;20420;-76
2022/08/10 00:52:19;;;;;;;1.63;0.90;;;25.40;63.60;;;;;;5013125;28;20030;-77
2022/08/10 00:54:45;;;;;;;1.20;0.63;;;25.40;63.50;;;;;;5011659;28;20017;-76
2022/08/10 00:57:11;;;;;;;1.90;0.60;;;25.40;63.50;;;;;;5018273;28;20029;-76
2022/08/10 00:59:36;;;;;;;1.48;0.70;;;25.40;63.50;;;;;;5031408;28;20040;-77
2022/08/10 01:02:02;;;;;;;2.00;0.70;;;25.40;63.50;;;;;;5031151;28;20107;-76
2022/08/10 01:04:28;;;;;;;2.50;0.68;;;25.40;63.50;;;;;;5031396;28;20022;-77
2022/08/10 01:07:24;;;;;;;0.77;0.60;;;25.40;63.50;;;;;;5032769;28;20419;-76
2022/08/10 01:10:12;;;;;;;2.38;0.60;;;25.40;63.40;;;;;;5032379;28;20026;-76
2022/08/10 01:12:49;;;;;;;1.50;0.73;;;25.40;63.50;;;;;;5032603;28;20113;-76
2022/08/10 01:15:33;;;;;;;0.50;0.50;;;25.40;63.50;;;;;;5032711;28;20029;-76
2022/08/10 01:18:08;;;;;;;0.80;0.50;;;25.40;63.40;;;;;;5031330;28;20022;-77
2022/08/10 01:21:12;;;;;;;1.17;0.70;;;25.30;63.40;;;;;;5032416;28;20095;-77
2022/08/10 01:24:25;;;;;;;1.55;0.90;;;25.40;63.50;;;;;;5031118;28;20495;-76
2022/08/10 01:26:59;;;;;;;1.05;0.60;;;25.40;63.50;;;;;;5030340;28;20029;-77
2022/08/10 01:29:44;;;;;;;1.25;0.60;;;25.40;63.60;;;;;;5032246;28;20103;-77
2022/08/10 01:32:10;;;;;;;0.47;0.47;;;25.30;63.50;;;;;;5032361;28;20049;-76
2022/08/10 01:34:49;;;;;;;1.27;0.60;;;25.30;63.50;;;;;;5031226;28;20026;-76
2022/08/10 01:37:19;;;;;;;0.68;0.43;;;25.30;63.50;;;;;;5031374;28;20017;-76
2022/08/10 01:39:46;;;;;;;1.50;0.60;;;25.30;63.50;;;;;;5030810;28;20072;-77
2022/08/10 01:42:13;;;;;;;0.50;0.50;;;25.30;63.60;;;;;;5031175;28;20025;-76
2022/08/10 01:44:44;;;;;;;0.63;0.60;;;25.30;63.70;;;;;;5030949;28;20056;-76
2022/08/10 01:49:59;;;;;;;1.55;0.50;;;25.30;63.60;;;;;;5031373;28;20028;-76
2022/08/10 01:52:25;;;;;;;0.98;0.60;;;25.30;63.60;;;;;;5032749;28;20022;-76
2022/08/10 01:54:50;;;;;;;3.15;0.70;;;25.40;63.70;;;;;;5018105;28;20072;-76
2022/08/10 01:57:16;;;;;;;2.58;0.50;;;25.30;63.50;;;;;;5035488;28;20025;-76
2022/08/10 01:59:42;;;;;;;1.67;0.65;;;25.30;63.60;;;;;;5034438;28;20051;-76
2022/08/10 02:02:09;;;;;;;0.50;0.50;;;25.30;63.50;;;;;;5017869;28;20036;-76
2022/08/10 02:04:36;;;;;;;1.63;0.60;;;25.30;63.60;;;;;;5034408;28;20104;-76
2022/08/10 02:07:02;;;;;;;1.10;0.63;;;25.30;63.60;;;;;;5034160;28;20072;-78
2022/08/10 02:09:32;;;;;;;0.90;0.60;;;25.30;63.60;;;;;;5034368;28;20491;-77
2022/08/10 02:12:02;;;;;;;1.92;0.68;;;25.30;63.60;;;;;;5034191;28;20025;-77
2022/08/10 02:14:30;;;;;;;2.92;0.70;;;25.30;63.60;;;;;;5034387;28;20021;-77
2022/08/10 02:16:56;;;;;;;1.17;0.50;;;25.30;63.70;;;;;;5034105;28;20071;-77
2022/08/10 02:19:23;;;;;;;1.38;0.60;;;25.30;63.70;;;;;;5034230;28;20034;-77
2022/08/10 02:21:49;;;;;;;1.70;0.65;;;25.30;64.70;;;;;;5033958;28;20037;-77
2022/08/10 02:24:15;;;;;;;3.47;0.60;;;25.30;63.70;;;;;;5034131;28;20472;-77
2022/08/10 02:26:41;;;;;;;1.00;0.52;;;25.30;63.70;;;;;;5034042;28;20036;-77
2022/08/10 02:29:08;;;;;;;4.35;0.75;;;25.30;63.70;;;;;;5033824;28;20045;-77
2022/08/10 02:31:34;;;;;;;1.48;0.70;;;25.30;63.70;;;;;;5034118;28;20025;-76
2022/08/10 02:34:00;;;;;;;1.60;0.73;;;25.30;63.60;;;;;;5033873;28;20028;-77
2022/08/10 02:36:28;;;;;;;1.10;0.60;;;25.30;63.60;;;;;;5033634;28;20025;-77
2022/08/10 02:38:56;;;;;;;2.13;0.55;;;25.30;63.70;;;;;;5035049;28;20399;-77
2022/08/10 02:41:37;;;;;;;1.83;0.55;;;25.30;63.70;;;;;;5033757;28;20040;-77
2022/08/10 02:44:05;;;;;;;1.90;0.60;;;25.30;63.60;;;;;;5033909;28;20076;-77
2022/08/10 02:47:01;;;;;;;10.70;0.70;;;25.30;63.60;;;;;;5033848;28;20053;-77
2022/08/10 02:49:49;;;;;;;1.45;0.70;;;25.30;63.60;;;;;;5030171;28;20029;-77
2022/08/10 02:52:21;;;;;;;1.25;0.55;;;25.20;63.50;;;;;;5066806;28;20064;-77
2022/08/10 02:54:52;;;;;;;0.75;0.45;;;25.30;63.60;;;;;;5033540;28;20025;-77
2022/08/10 02:57:19;;;;;;;0.93;0.80;;;25.30;63.60;;;;;;5033296;28;20088;-77
2022/08/10 02:59:50;;;;;;;1.00;0.77;;;25.30;63.60;;;;;;5033470;28;20754;-77
2022/08/10 03:02:28;;;;;;;2.25;0.50;;;25.30;63.70;;;;;;5033202;28;20472;-77
2022/08/10 03:04:55;;;;;;;1.40;0.60;;;25.30;63.70;;;;;;5034260;28;20107;-77
2022/08/10 03:07:21;;;;;;;3.50;0.70;;;25.20;63.60;;;;;;5017153;28;20476;-77
2022/08/10 03:09:47;;;;;;;1.08;0.60;;;25.20;63.60;;;;;;5016920;28;20028;-77
2022/08/10 03:12:13;;;;;;;0.40;0.40;;;25.20;63.60;;;;;;5016844;28;20055;-77
2022/08/10 03:14:38;;;;;;;1.02;0.50;;;25.20;63.60;;;;;;5016801;28;20030;-76
2022/08/10 03:17:04;;;;;;;0.50;0.50;;;25.20;63.70;;;;;;5016457;28;20087;-76
2022/08/10 03:19:30;;;;;;;1.10;0.60;;;25.20;63.70;;;;;;5016675;28;20025;-76
2022/08/10 03:21:56;;;;;;;0.98;0.60;;;25.20;63.70;;;;;;5016449;28;20052;-76
2022/08/10 03:24:24;;;;;;;1.17;0.55;;;25.20;63.70;;;;;;5032986;28;20021;-76
2022/08/10 03:26:51;;;;;;;0.50;0.50;;;25.20;63.70;;;;;;5016924;28;20025;-76
2022/08/10 03:29:18;;;;;;;1.45;0.73;;;25.20;63.80;;;;;;5016470;28;20046;-77
2022/08/10 03:31:44;;;;;;;2.42;0.52;;;25.20;64.30;;;;;;5016591;28;20021;-76
2022/08/10 03:34:10;;;;;;;0.85;0.55;;;25.20;63.80;;;;;;5016195;28;20018;-76
2022/08/10 03:36:35;;;;;;;1.48;0.68;;;25.20;64.00;;;;;;5016141;28;20137;-77
2022/08/10 03:39:01;;;;;;;3.35;0.85;;;25.20;64.00;;;;;;5033816;28;20025;-77
2022/08/10 03:41:35;;;;;;;1.90;0.55;;;25.20;64.20;;;;;;5032795;28;20033;-77
2022/08/10 03:44:01;;;;;;;2.83;1.13;;;25.20;64.30;;;;;;5016953;28;20093;-77
2022/08/10 03:46:27;;;;;;;1.88;0.65;;;25.20;64.30;;;;;;5016135;28;20029;-77
2022/08/10 03:48:55;;;;;;;1.67;0.70;;;25.20;64.30;;;;;;5015924;28;20021;-78
2022/08/10 03:51:21;;;;;;;2.78;0.75;;;25.20;64.40;;;;;;5016139;28;20079;-77
2022/08/10 03:53:46;;;;;;;3.53;0.60;;;25.20;64.40;;;;;;5016218;28;20029;-77
2022/08/10 03:56:12;;;;;;;1.00;0.60;;;25.20;64.50;;;;;;5016021;28;20033;-77
2022/08/10 03:58:38;;;;;;;0.60;0.50;;;25.20;64.50;;;;;;5015694;28;20040;-77
2022/08/10 04:01:03;;;;;;;1.60;0.60;;;25.20;64.40;;;;;;5032033;28;20519;-77
2022/08/10 04:03:29;;;;;;;2.25;0.60;;;25.20;64.40;;;;;;5033408;28;20064;-77
2022/08/10 04:05:54;;;;;;;1.25;0.70;;;25.20;64.50;;;;;;5032218;28;20026;-77
2022/08/10 04:08:20;;;;;;;1.13;0.60;;;25.10;64.30;;;;;;5015821;28;20029;-77
2022/08/10 04:10:46;;;;;;;1.50;0.50;;;25.20;64.50;;;;;;5015798;28;20030;-77
2022/08/10 04:13:11;;;;;;;1.65;0.90;;;25.20;64.50;;;;;;5031988;28;20498;-77
2022/08/10 04:15:37;;;;;;;1.13;0.55;;;25.20;64.40;;;;;;5032692;28;20030;-77
2022/08/10 04:18:03;;;;;;;1.75;0.73;;;25.20;64.40;;;;;;5031827;28;20057;-77
2022/08/10 04:20:30;;;;;;;1.50;0.60;;;25.10;64.30;;;;;;5033124;28;20036;-77
2022/08/10 04:22:58;;;;;;;0.73;0.50;;;25.20;64.30;;;;;;5031917;28;20020;-77
2022/08/10 04:25:24;;;;;;;0.90;0.50;;;25.10;64.40;;;;;;5031666;28;20112;-76
2022/08/10 04:27:49;;;;;;;0.95;0.77;;;25.10;64.40;;;;;;5031904;28;20076;-76
2022/08/10 04:30:15;;;;;;;0.75;0.50;;;25.20;64.50;;;;;;5032927;28;20053;-76
2022/08/10 04:32:41;;;;;;;0.80;0.60;;;25.20;64.50;;;;;;5015252;28;20022;-76
2022/08/10 04:35:09;;;;;;;1.42;0.60;;;25.10;64.50;;;;;;5015444;28;20112;-76
2022/08/10 04:37:36;;;;;;;1.20;0.60;;;25.10;64.50;;;;;;5015798;28;20483;-77
2022/08/10 04:40:02;;;;;;;0.70;0.68;;;25.10;64.50;;;;;;5031647;28;20058;-77
2022/08/10 04:42:27;;;;;;;1.25;0.50;;;25.10;64.50;;;;;;5031687;28;20045;-77
2022/08/10 04:44:53;;;;;;;1.20;0.80;;;25.10;64.40;;;;;;5015281;28;20032;-77
2022/08/10 04:47:18;;;;;;;1.63;0.50;;;25.10;64.40;;;;;;5032518;28;20053;-77
2022/08/10 04:49:44;;;;;;;2.10;0.57;;;25.10;64.50;;;;;;5032778;28;20108;-77
2022/08/10 04:52:10;;;;;;;1.20;0.60;;;25.10;64.50;;;;;;5032952;28;20026;-77
2022/08/10 04:54:35;;;;;;;0.68;0.47;;;25.10;64.50;;;;;;5032794;28;20030;-77
2022/08/10 04:57:01;;;;;;;0.55;0.40;;;25.10;64.50;;;;;;5032627;28;20025;-77
2022/08/10 04:59:27;;;;;;;2.15;0.55;;;25.10;64.60;;;;;;5033027;28;20036;-77
2022/08/10 05:01:52;;;;;;;2.65;0.82;;;25.10;64.60;;;;;;5032570;28;20060;-77
2022/08/10 05:04:18;;;;;;;0.93;0.60;;;25.10;64.60;;;;;;5032857;28;20049;-77
2022/08/10 05:06:44;;;;;;;1.38;0.80;;;25.10;64.60;;;;;;5032683;28;20093;-77
2022/08/10 05:09:09;;;;;;;1.52;0.60;;;25.10;64.60;;;;;;5032612;28;20030;-77
2022/08/10 05:11:35;;;;;;;1.15;0.85;;;25.10;64.60;;;;;;5032742;28;20380;-77
2022/08/10 05:14:00;;;;;;;1.83;0.60;;;25.10;64.60;;;;;;5032725;28;20064;-77
2022/08/10 05:16:26;;;;;;;1.77;0.63;;;25.10;64.60;;;;;;5031202;28;20029;-77
2022/08/10 05:18:52;;;;;;;2.95;0.82;;;25.10;64.60;;;;;;5032884;28;20031;-77
2022/08/10 05:21:17;;;;;;;1.30;0.80;;;25.10;64.60;;;;;;5032377;28;20034;-77
2022/08/10 05:23:43;;;;;;;1.10;0.70;;;25.10;64.60;;;;;;5032715;28;20029;-77
2022/08/10 05:26:09;;;;;;;1.33;0.80;;;25.00;64.60;;;;;;5032835;28;20409;-77
2022/08/10 05:28:34;;;;;;;1.00;0.63;;;25.10;65.10;;;;;;5036307;28;20519;-77
2022/08/10 05:31:00;;;;;;;1.52;0.70;;;25.10;64.70;;;;;;5034836;28;20026;-77
2022/08/10 05:33:26;;;;;;;1.95;0.57;;;25.10;64.70;;;;;;5036204;28;20036;-77
2022/08/10 05:35:51;;;;;;;1.95;0.60;;;25.10;64.80;;;;;;5036337;28;20392;-77
2022/08/10 05:38:17;;;;;;;1.10;0.52;;;25.10;64.80;;;;;;5036130;28;20033;-77
2022/08/10 05:40:43;;;;;;;1.25;0.80;;;25.10;65.00;;;;;;5034882;28;20029;-76
2022/08/10 05:43:09;;;;;;;2.38;0.52;;;25.10;65.00;;;;;;5036110;28;20021;-76
2022/08/10 05:45:35;;;;;;;1.23;0.80;;;25.10;63.50;;;;;;5034484;28;20032;-75
2022/08/10 05:48:00;;;;;;;0.90;0.63;;;25.00;62.00;;;;;;5036159;28;20026;-76
2022/08/10 05:50:27;;;;;;;0.98;0.45;;;25.00;61.50;;;;;;5036071;28;20025;-75
2022/08/10 05:52:53;;;;;;;1.30;0.70;;;24.90;61.40;;;;;;5034825;28;20029;-75
2022/08/10 05:55:19;;;;;;;1.08;0.50;;;24.90;61.80;;;;;;5034552;28;20120;-75
2022/08/10 05:57:44;;;;;;;1.20;0.70;;;24.90;61.50;;;;;;5034366;28;20112;-75
2022/08/10 06:00:12;;;;;;;2.90;0.80;;;24.90;61.60;;;;;;5017822;28;20083;-74
2022/08/10 06:02:43;;;;;;;2.58;0.70;;;24.90;61.40;;;;;;5018513;28;20029;-74
2022/08/10 06:05:10;;;;;;;1.13;0.70;;;24.90;62.50;;;;;;5034353;28;20029;-74
2022/08/10 06:07:39;;;;;;;1.08;0.60;;;24.90;61.50;;;;;;5034312;28;20026;-74
2022/08/10 06:10:05;;;;;;;1.60;0.50;;;24.90;61.50;;;;;;5034559;28;20136;-75
2022/08/10 06:12:31;;;;;;;0.82;0.60;;;24.90;61.70;;;;;;5034060;28;20129;-76
2022/08/10 06:15:00;;;;;;;1.38;0.70;;;24.90;61.30;;;;;;5034164;28;20092;-75
2022/08/10 06:17:29;;;;;;;0.52;0.45;;;24.90;61.40;;;;;;5034057;28;20022;-75
2022/08/10 06:19:58;;;;;;;0.88;0.60;;;24.90;61.40;;;;;;5034168;28;20021;-75
2022/08/10 06:22:25;;;;;;;0.52;0.50;;;24.80;61.20;;;;;;5033838;28;20049;-75
2022/08/10 06:24:51;;;;;;;0.73;0.60;;;24.80;61.30;;;;;;5034247;28;20021;-75
2022/08/10 06:27:17;;;;;;;1.17;0.60;;;24.90;61.40;;;;;;5033909;28;20024;-75
2022/08/10 06:29:42;;;;;;;0.82;0.57;;;24.90;61.20;;;;;;5033450;28;20049;-75
2022/08/10 06:32:09;;;;;;;2.25;0.73;;;24.80;61.40;;;;;;5033319;28;20078;-75
2022/08/10 06:34:39;;;;;;;1.73;0.60;;;24.80;61.40;;;;;;5033388;28;20029;-75
2022/08/10 06:37:05;;;;;;;0.93;0.80;;;24.80;61.60;;;;;;5032876;28;20031;-76
2022/08/10 06:39:31;;;;;;;0.57;0.50;;;24.80;61.50;;;;;;5033196;28;20029;-76
2022/08/10 06:42:28;;;;;;;0.77;0.70;;;24.80;61.40;;;;;;5033061;28;20629;-76
2022/08/10 06:45:05;;;;;;;1.08;0.63;;;24.80;61.50;;;;;;5063322;28;20164;-75
2022/08/10 06:47:50;;;;;;;0.75;0.50;;;24.80;61.50;;;;;;5033137;28;20024;-75
2022/08/10 06:50:28;;;;;;;2.25;0.85;;;24.80;61.40;;;;;;5033033;28;20484;-76
2022/08/10 06:52:54;;;;;;;5.28;0.77;;;24.80;61.40;;;;;;5033212;28;20025;-75
2022/08/10 06:55:20;;;;;;;3.55;1.15;;;24.80;61.50;;;;;;5033047;28;20022;-74
2022/08/10 06:57:45;;;;;;;1.20;0.77;;;24.80;61.40;;;;;;5031743;28;20028;-74
2022/08/10 07:00:13;;;;;;;2.63;1.20;;;24.80;61.40;;;;;;5032738;28;20097;-74
2022/08/10 07:02:50;;;;;;;4.20;1.50;;;24.80;61.50;;;;;;5032877;28;20404;-74
2022/08/10 07:05:19;;;;;;;5.45;1.50;;;24.80;61.50;;;;;;5024787;28;20099;-74
2022/08/10 07:07:45;;;;;;;6.00;1.58;;;24.80;61.50;;;;;;5012782;28;20042;-74
2022/08/10 07:10:10;;;;;;;4.93;1.60;;;24.80;61.50;;;;;;5025236;28;20484;-74
2022/08/10 07:12:36;;;;;;;8.05;2.15;;;24.80;61.60;;;;;;5032297;28;20029;-74
2022/08/10 07:15:02;;;;;;;5.90;2.08;;;24.80;61.60;;;;;;5032657;28;20021;-74
2022/08/10 07:17:28;;;;;;;6.68;2.47;;;24.80;61.70;;;;;;5029663;28;20026;-74
2022/08/10 07:19:55;;;;;;;6.30;2.15;;;24.80;61.70;;;;;;5012714;28;20037;-74
2022/08/10 07:22:23;;;;;;;9.10;2.10;;;24.70;61.60;;;;;;5012492;28;20025;-75
2022/08/10 07:24:49;;;;;;;5.72;2.10;;;24.70;61.60;;;;;;5012922;28;20057;-74
2022/08/10 07:27:14;;;;;;;7.63;2.10;;;24.70;61.70;;;;;;5025408;28;20045;-74
2022/08/10 07:29:41;;;;;;;9.05;2.42;;;24.70;61.70;;;;;;5032040;28;20144;-75
2022/08/10 07:32:07;;;;;;;6.82;2.35;;;24.70;61.60;;;;;;5032400;28;20027;-75
2022/08/10 07:34:34;;;;;;;5.68;2.22;;;24.70;61.60;;;;;;5033131;28;20096;-75
2022/08/10 07:37:02;;;;;;;6.43;2.00;;;24.70;61.60;;;;;;5032312;28;20488;-74
2022/08/10 07:39:36;;;;;;;8.82;2.35;;;24.70;61.60;;;;;;5032138;28;20100;-74
2022/08/10 07:42:02;;;;;;;4.03;2.00;;;24.70;61.60;;;;;;5031862;28;20498;-74
2022/08/10 07:44:28;;;;;;;4.82;2.03;;;24.70;61.70;;;;;;5031928;28;20022;-74
2022/08/10 07:46:55;;;;;;;8.27;2.30;;;24.70;61.70;;;;;;5032137;28;20104;-74
2022/08/10 07:49:25;;;;;;;5.78;2.40;;;24.70;61.70;;;;;;5014550;28;20391;-74
2022/08/10 07:51:52;;;;;;;5.78;2.00;;;24.70;61.70;;;;;;5015724;28;20083;-74
2022/08/10 07:54:18;;;;;;;6.60;2.40;;;24.70;61.70;;;;;;5015559;28;20025;-75
2022/08/10 07:56:46;;;;;;;7.78;2.40;;;24.70;61.70;;;;;;5015143;28;20037;-75
2022/08/10 07:59:14;;;;;;;5.35;2.25;;;24.70;61.70;;;;;;5015231;28;20029;-74
2022/08/10 08:01:43;;;;;;;8.43;2.85;;;24.70;61.70;;;;;;5031538;28;20022;-74
2022/08/10 08:04:08;;;;;;;5.65;2.65;;;24.70;61.70;;;;;;5032861;28;20033;-75
2022/08/10 08:06:34;;;;;;;6.30;2.38;;;24.60;61.70;;;;;;5032772;28;20419;-74
2022/08/10 08:09:00;;;;;;;8.52;2.30;;;24.60;61.70;;;;;;5031714;28;20387;-75
2022/08/10 08:11:26;;;;;;;7.28;2.67;;;24.60;61.70;;;;;;5031687;28;20029;-74
2022/08/10 08:13:52;;;;;;;7.00;2.33;;;24.60;61.90;;;;;;5032860;28;20029;-75
2022/08/10 08:16:18;;;;;;;7.70;2.55;;;24.70;61.70;;;;;;5031438;28;20028;-74
2022/08/10 08:18:44;;;;;;;7.43;2.60;;;24.70;61.80;;;;;;5016085;28;20112;-74
2022/08/10 08:21:10;;;;;;;6.78;2.70;;;24.60;61.80;;;;;;5011689;28;20106;-75
2022/08/10 08:23:36;;;;;;;8.52;2.75;;;24.70;61.80;;;;;;5011409;28;20478;-74
2022/08/10 08:26:02;;;;;;;8.73;2.60;;;24.60;61.70;;;;;;5011672;28;20050;-74
2022/08/10 08:28:27;;;;;;;6.90;2.72;;;24.70;61.80;;;;;;5011358;28;20068;-74
2022/08/10 08:30:53;;;;;;;6.75;2.88;;;24.60;61.70;;;;;;5011773;28;20113;-74
2022/08/10 08:33:18;;;;;;;5.80;2.42;;;24.60;61.70;;;;;;5011767;28;20422;-74
2022/08/10 08:35:44;;;;;;;7.10;2.78;;;24.60;61.70;;;;;;5011553;28;20057;-74
2022/08/10 08:38:11;;;;;;;7.57;3.28;;;24.60;61.60;;;;;;5012562;28;20026;-74
2022/08/10 08:40:37;;;;;;;8.15;2.58;;;24.70;61.60;;;;;;5012453;28;20125;-74
2022/08/10 08:43:21;;;;;;;9.23;3.30;;;24.70;61.60;;;;;;5011559;28;20105;-74
2022/08/10 08:45:47;;;;;;;6.18;2.80;;;24.60;61.60;;;;;;5012468;28;20026;-74
2022/08/10 08:48:19;;;;;;;7.07;3.00;;;24.60;61.60;;;;;;5012639;28;20025;-75
2022/08/10 08:50:55;;;;;;;9.60;3.47;;;24.60;61.60;;;;;;5012390;28;20065;-74
2022/08/10 08:53:29;;;;;;;7.60;2.85;;;24.60;61.70;;;;;;5012314;28;20030;-74
2022/08/10 08:55:56;;;;;;;7.00;2.80;;;24.60;61.70;;;;;;5011479;28;20033;-74
2022/08/10 08:58:28;;;;;;;10.30;3.10;;;24.60;61.70;;;;;;5028428;28;20124;-74
2022/08/10 09:00:54;;;;;;;6.55;2.97;;;24.60;61.70;;;;;;5033297;28;20036;-75
2022/08/10 09:03:43;;;;;;;8.05;2.45;;;24.60;61.70;;;;;;5036250;28;20022;-74
2022/08/10 09:06:43;;;;;;;7.30;2.80;;;24.60;61.70;;;;;;5035061;28;20022;-74
2022/08/10 09:09:34;;;;;;;8.23;3.08;;;24.60;61.70;;;;;;5036174;28;20048;-74
2022/08/10 09:12:22;;;;;;;9.05;2.97;;;24.60;61.70;;;;;;5068220;28;20400;-74
2022/08/10 09:14:55;;;;;;;6.90;3.00;;;24.60;61.80;;;;;;5034812;28;20035;-75
2022/08/10 09:17:40;;;;;;;7.00;2.95;;;24.60;61.70;;;;;;5030718;28;20147;-75
2022/08/10 09:20:05;;;;;;;6.68;2.90;;;24.60;61.70;;;;;;5015225;28;20029;-75
2022/08/10 09:22:37;;;;;;;7.15;2.75;;;24.60;61.70;;;;;;5015960;28;20076;-75
2022/08/10 09:25:23;;;;;;;6.45;2.92;;;24.60;61.70;;;;;;5015088;28;20022;-75
2022/08/10 09:28:04;;;;;;;8.10;2.75;;;24.60;61.70;;;;;;5014755;28;20065;-74
2022/08/10 09:30:34;;;;;;;7.38;2.95;;;24.60;62.30;;;;;;5014558;28;20412;-75
2022/08/10 09:33:22;;;;;;;5.43;2.70;;;24.60;61.70;;;;;;5014838;28;20083;-74
2022/08/10 09:36:11;;;;;;;6.20;2.97;;;24.60;61.70;;;;;;5014590;28;20431;-74
2022/08/10 09:38:36;;;;;;;10.85;3.08;;;24.50;61.70;;;;;;5014778;28;20537;-75
2022/08/10 09:41:29;;;;;;;6.38;2.90;;;24.60;61.70;;;;;;5015729;28;20108;-74
2022/08/10 09:43:58;;;;;;;;;;;24.60;61.70;;;;;;5016218;28;20072;-74
2022/08/10 09:46:27;;;;;;;6.15;2.97;;;24.60;61.70;;;;;;5015754;28;19912;-75
2022/08/10 09:49:07;;;;;;;5.55;2.80;;;24.60;61.70;;;;;;5014545;28;20492;-74
2022/08/10 09:51:48;;;;;;;4.75;2.28;;;24.60;61.70;;;;;;5014413;28;20025;-74
2022/08/10 09:54:41;;;;;;;6.50;2.70;;;24.50;61.70;;;;;;5014632;28;20029;-75
2022/08/10 09:57:14;;;;;;;5.47;2.60;;;24.60;61.80;;;;;;5020439;28;20072;-74
2022/08/10 09:59:42;;;;;;;8.65;2.95;;;24.60;61.80;;;;;;5034220;28;20049;-74
2022/08/10 10:02:39;;;;;;;5.28;2.70;;;24.60;61.70;;;;;;5034158;28;20033;-74
2022/08/10 10:05:29;;;;;;;5.38;2.67;;;24.60;61.70;;;;;;5034872;28;20017;-74
2022/08/10 10:08:20;;;;;;;7.68;3.08;;;24.60;61.70;;;;;;5034948;28;20028;-74
2022/08/10 10:11:06;;;;;;;6.30;2.50;;;24.60;61.70;;;;;;5031918;28;20037;-74
2022/08/10 10:13:38;;;;;;;5.40;2.60;;;24.60;61.80;;;;;;5032657;28;20108;-74
2022/08/10 10:16:09;;;;;;;6.50;2.60;;;24.60;61.70;;;;;;5034833;28;20049;-74
2022/08/10 10:18:45;;;;;;;7.45;2.88;;;24.60;61.70;;;;;;5020723;28;20034;-74
2022/08/10 10:21:27;;;;;;;8.30;2.88;;;24.50;61.70;;;;;;5013569;28;20496;-74
2022/08/10 10:24:21;;;;;;;5.90;2.70;;;24.60;62.70;;;;;;5014032;28;20026;-74
2022/08/10 10:27:08;;;;;;;3.42;2.28;;;24.60;61.70;;;;;;5014281;28;20030;-74
2022/08/10 10:29:53;;;;;;;8.30;2.83;;;24.60;61.70;;;;;;5014741;28;20125;-74
2022/08/10 10:32:47;;;;;;;8.02;2.63;;;24.60;61.70;;;;;;5013761;28;20022;-74
2022/08/10 10:35:34;;;;;;;5.05;2.50;;;24.50;61.70;;;;;;5013523;28;20393;-75
2022/08/10 10:38:00;;;;;;;8.40;3.08;;;24.50;61.70;;;;;;5013504;28;20021;-74
2022/08/10 10:40:27;;;;;;;5.15;2.60;;;24.50;61.60;;;;;;5013338;28;20140;-74
2022/08/10 10:43:23;;;;;;;6.20;2.65;;;24.50;61.60;;;;;;5013443;28;20014;-74
2022/08/10 10:46:07;;;;;;;6.53;2.95;;;24.50;61.60;;;;;;5013575;28;20024;-75
2022/08/10 10:49:09;;;;;;;6.20;2.70;;;24.50;61.60;;;;;;5014552;28;20025;-75
2022/08/10 10:52:09;;;;;;;5.78;2.90;;;24.60;61.70;;;;;;5014441;28;20026;-75
2022/08/10 10:55:04;;;;;;;4.78;2.25;;;24.50;61.70;;;;;;5013394;28;20053;-75
2022/08/10 10:57:37;;;;;;;4.78;2.22;;;24.60;61.70;;;;;;5022381;28;20024;-75
2022/08/10 11:00:07;;;;;;;6.13;2.53;;;24.50;61.60;;;;;;5032937;28;20022;-75
2022/08/10 11:03:00;;;;;;;6.38;2.47;;;24.50;61.60;;;;;;5034078;28;20028;-74
2022/08/10 11:05:34;;;;;;;4.47;2.25;;;24.60;61.70;;;;;;5034151;28;20021;-74
2022/08/10 11:08:07;;;;;;;5.57;2.30;;;24.60;61.70;;;;;;5033730;28;20029;-74
2022/08/10 11:11:07;;;;;;;5.80;2.58;;;24.50;61.60;;;;;;5032868;28;20026;-74
2022/08/10 11:13:56;;;;;;;4.72;2.00;;;24.50;61.60;;;;;;5028418;28;20037;-74
2022/08/10 11:17:04;;;;;;;6.30;2.28;;;24.60;61.70;;;;;;5033841;28;20025;-74
2022/08/10 11:19:41;;;;;;;5.00;2.38;;;24.50;61.60;;;;;;5026332;28;20057;-75
2022/08/10 11:22:26;;;;;;;3.65;2.30;;;24.60;61.70;;;;;;5012605;28;20039;-75
2022/08/10 11:25:05;;;;;;;5.78;2.33;;;24.60;61.70;;;;;;5013557;28;20072;-75
2022/08/10 11:28:10;;;;;;;3.78;2.10;;;24.60;61.70;;;;;;5012687;28;20021;-75
2022/08/10 11:30:54;;;;;;;4.75;2.70;;;24.50;61.70;;;;;;5012503;28;20038;-74
2022/08/10 11:33:55;;;;;;;5.03;2.05;;;24.60;61.70;;;;;;5013468;28;20026;-75
2022/08/10 11:36:35;;;;;;;5.18;2.20;;;24.60;61.70;;;;;;5012588;28;20037;-75
2022/08/10 11:39:13;;;;;;;5.72;2.28;;;24.60;61.70;;;;;;5012358;28;20029;-74
2022/08/10 11:41:59;;;;;;;4.18;2.33;;;24.60;61.70;;;;;;5012382;28;20022;-75
2022/08/10 11:44:28;;;;;;;4.50;2.20;;;24.60;61.70;;;;;;5013597;28;20026;-74
2022/08/10 11:46:57;;;;;;;5.05;2.17;;;24.60;61.70;;;;;;5012150;28;20014;-74
2022/08/10 11:49:32;;;;;;;3.72;2.00;;;24.50;61.60;;;;;;5013427;28;20057;-74
2022/08/10 11:52:27;;;;;;;4.28;2.17;;;24.50;61.60;;;;;;4995755;28;20116;-75
2022/08/10 11:54:53;;;;;;;4.65;1.83;;;24.50;61.60;;;;;;5005568;28;20492;-75
2022/08/10 11:57:19;;;;;;;3.70;2.13;;;24.60;61.60;;;;;;5019729;28;20541;-75
2022/08/10 11:59:57;;;;;;;3.88;2.10;;;24.60;61.60;;;;;;5031735;28;20100;-75
2022/08/10 12:02:31;;;;;;;6.13;2.08;;;24.60;61.60;;;;;;5031577;28;20100;-75
2022/08/10 12:05:05;;;;;;;3.70;2.05;;;24.60;61.60;;;;;;5031702;28;20040;-75
2022/08/10 12:07:31;;;;;;;3.08;1.90;;;24.60;61.60;;;;;;5033098;28;20067;-75
2022/08/10 12:09:57;;;;;;;4.78;1.90;;;24.60;61.60;;;;;;5031523;28;20056;-74
2022/08/10 12:12:22;;;;;;;5.72;2.30;;;24.60;61.60;;;;;;5031606;28;20057;-74
2022/08/10 12:14:59;;;;;;;4.57;2.08;;;24.60;61.60;;;;;;5031594;28;20048;-75
2022/08/10 12:17:41;;;;;;;4.80;2.00;;;24.60;61.50;;;;;;5026799;28;20021;-74
2022/08/10 12:20:08;;;;;;;6.10;1.92;;;24.60;61.60;;;;;;5011872;28;20026;-74
2022/08/10 12:22:48;;;;;;;3.95;1.98;;;24.50;61.50;;;;;;5011624;28;20033;-74
2022/08/10 12:25:35;;;;;;;3.22;2.17;;;24.60;61.60;;;;;;5011664;28;20022;-75
2022/08/10 12:28:13;;;;;;;3.78;1.98;;;24.60;61.50;;;;;;4990861;28;20045;-75
2022/08/10 12:30:41;;;;;;;2.38;1.70;;;24.60;61.60;;;;;;4958742;28;20053;-75
2022/08/10 12:33:17;;;;;;;2.88;1.70;;;24.60;61.60;;;;;;4958903;28;20089;-75
2022/08/10 12:35:49;;;;;;;4.80;1.80;;;24.60;61.60;;;;;;4959135;28;20026;-74
2022/08/10 12:38:38;;;;;;;3.10;2.00;;;24.60;61.60;;;;;;4975176;28;20041;-75
2022/08/10 12:41:22;;;;;;;3.40;2.00;;;24.60;61.60;;;;;;4974565;28;20376;-75
2022/08/10 12:43:50;;;;;;;3.58;1.63;;;24.60;61.60;;;;;;4976947;28;20031;-74
2022/08/10 12:46:32;;;;;;;3.28;1.77;;;24.60;61.60;;;;;;4974773;28;20031;-74
2022/08/10 12:49:27;;;;;;;3.05;1.75;;;24.60;61.60;;;;;;4990880;28;20548;-75
2022/08/10 12:52:16;;;;;;;3.20;1.90;;;24.60;61.60;;;;;;4977175;28;20042;-74
2022/08/10 12:54:42;;;;;;;3.28;1.75;;;24.60;61.60;;;;;;4973828;28;20074;-74
2022/08/10 12:57:14;;;;;;;2.92;2.00;;;24.60;61.60;;;;;;4980234;28;20064;-74
2022/08/10 12:59:41;;;;;;;4.65;1.80;;;24.60;61.60;;;;;;5026621;28;20058;-74
2022/08/10 13:02:07;;;;;;;2.92;1.70;;;24.60;61.60;;;;;;5010120;28;20117;-74
2022/08/10 13:04:34;;;;;;;2.70;1.70;;;24.60;61.60;;;;;;5012775;28;20121;-75
2022/08/10 13:07:00;;;;;;;2.92;1.60;;;24.60;61.70;;;;;;5011173;28;20022;-75
2022/08/10 13:09:26;;;;;;;2.30;1.58;;;24.60;61.70;;;;;;5011293;28;20028;-75
2022/08/10 13:12:12;;;;;;;4.07;1.70;;;24.60;61.60;;;;;;5011169;28;20029;-74
2022/08/10 13:15:18;;;;;;;1.98;1.58;;;24.70;62.70;;;;;;5011200;28;20045;-75